header
chart

Reported and forecast weather at local airports

Important: not to be used for flight planning purposes.


EGBB METAR fetched   Thursday 26th Apr @ 06:27:07
EGBB 260520Z 23006KT 200V270 CAVOK 06/04 Q1013

EGCC METAR fetched   Thursday 26th Apr @ 06:27:05
EGCC 260520Z AUTO 24013KT 9999 BKN041 07/04 Q1011 NOSIG

EGGP METAR fetched   Thursday 26th Apr @ 06:27:05
EGGP 260520Z 26013KT 9999 SCT038 08/04 Q1012

EGNH METAR fetched   Thursday 26th Apr @ 06:27:06
EGNH 251950Z 24022KT 9999 FEW018 08/06 Q1008

EGNM METAR fetched   Thursday 26th Apr @ 06:27:06
EGNM 260520Z 25014KT 220V290 9999 -SHRA FEW005 SCT015 06/04 Q1009

EGOV METAR fetched   Thursday 26th Apr @ 06:27:07
EGOV 260450Z AUTO 24018KT 9999 NCD 07/05 Q1012


EGBB TAF fetched   Thursday 26th Apr @ 06:27:07
TAF EGBB 260457Z 2606/2706 26012KT 9999 SCT035 PROB30 TEMPO 2609/2617 27015G25KT 7000 SHRA TEMPO 2703/2706 7000 -RA BKN012 PROB30 TEMPO 2703/2706 4000 RA BKN009

EGCC TAF fetched   Thursday 26th Apr @ 06:27:05
TAF EGCC 260454Z 2606/2712 26012KT 9999 SCT030 TEMPO 2609/2616 26017G27KT 7000 SHRA BECMG 2621/2624 17005KT BECMG 2704/2707 6000 RA TEMPO 2709/2712 BKN012

EGGP TAF fetched   Thursday 26th Apr @ 06:27:05
TAF EGGP 260454Z 2606/2706 26012KT 9999 SCT025 PROB30 TEMPO 2609/2618 27015G26KT 8000 SHRA BECMG 2621/2624 15004KT TEMPO 2704/2706 8000 RA

EGNM TAF fetched   Thursday 26th Apr @ 06:27:07
TAF TAF EGNM 260500Z 2606/2706 26014KT 9999 SCT020 TEMPO 2606/2619 27018G28KT 7000 SHRA BKN013 BECMG 2703/2706 13006KT

EGOV TAF fetched   Thursday 26th Apr @ 06:27:08
TAF TAF EGOV 190525Z 1906/1918 04008KT CAVOK PROB30 TEMPO 1906/1912 6000 SHRA TEMPO 1912/1915 4000 +SHRA SCT020 BKN030CB PROB30 TEMPO 1913/1915 VRBG20G30KT 2500 TSGR BKN012

Every effort is made to ensure that this information is free from errors but as it is provided by a third party the accuracy of the reports cannot be guaranteed.